sensor_id;sensor_type;location;lat;lon;timestamp;P1;durP1;ratioP1;P2;durP2;ratioP2
45944;SDS011;31655;48.972;10.686;2022-11-23T06:58:18;24.17;;;9.35;;
45944;SDS011;31655;48.972;10.686;2022-11-23T07:00:58;16.80;;;8.40;;
45944;SDS011;31655;48.972;10.686;2022-11-23T07:03:41;19.58;;;9.60;;
45944;SDS011;31655;48.972;10.686;2022-11-23T07:06:12;21.17;;;9.00;;
45944;SDS011;31655;48.972;10.686;2022-11-23T07:08:37;14.27;;;8.38;;
45944;SDS011;31655;48.972;10.686;2022-11-23T07:11:07;17.23;;;8.02;;
45944;SDS011;31655;48.972;10.686;2022-11-23T07:13:34;15.85;;;7.85;;
45944;SDS011;31655;48.972;10.686;2022-11-23T07:16:00;18.15;;;10.63;;
45944;SDS011;31655;48.972;10.686;2022-11-23T07:18:45;14.77;;;8.00;;
45944;SDS011;31655;48.972;10.686;2022-11-23T07:21:11;19.75;;;8.95;;
45944;SDS011;31655;48.972;10.686;2022-11-23T07:23:38;17.25;;;9.35;;
45944;SDS011;31655;48.972;10.686;2022-11-23T07:26:06;16.95;;;9.25;;
45944;SDS011;31655;48.972;10.686;2022-11-23T07:28:34;16.63;;;9.07;;
45944;SDS011;31655;48.972;10.686;2022-11-23T07:31:00;14.65;;;8.50;;
45944;SDS011;31655;48.972;10.686;2022-11-23T07:33:25;16.75;;;8.10;;
45944;SDS011;31655;48.972;10.686;2022-11-23T07:35:51;24.38;;;8.70;;
45944;SDS011;31655;48.972;10.686;2022-11-23T07:38:17;18.92;;;9.10;;
45944;SDS011;31655;48.972;10.686;2022-11-23T07:40:43;19.25;;;9.52;;
45944;SDS011;31655;48.972;10.686;2022-11-23T07:43:08;31.73;;;14.15;;
45944;SDS011;31655;48.972;10.686;2022-11-23T07:45:34;26.23;;;13.85;;
45944;SDS011;31655;48.972;10.686;2022-11-23T07:48:10;27.02;;;12.68;;
45944;SDS011;31655;48.972;10.686;2022-11-23T07:53:03;20.13;;;10.00;;
45944;SDS011;31655;48.972;10.686;2022-11-23T07:55:30;21.98;;;10.27;;
45944;SDS011;31655;48.972;10.686;2022-11-23T07:57:56;23.95;;;12.98;;
45944;SDS011;31655;48.972;10.686;2022-11-23T08:00:22;33.83;;;15.05;;
45944;SDS011;31655;48.972;10.686;2022-11-23T08:02:49;16.85;;;9.55;;
45944;SDS011;31655;48.972;10.686;2022-11-23T08:05:15;16.48;;;9.57;;
45944;SDS011;31655;48.972;10.686;2022-11-23T08:07:42;17.73;;;11.18;;
45944;SDS011;31655;48.972;10.686;2022-11-23T08:10:09;23.13;;;10.75;;
45944;SDS011;31655;48.972;10.686;2022-11-23T08:12:37;17.95;;;8.85;;
45944;SDS011;31655;48.972;10.686;2022-11-23T08:15:03;14.57;;;8.13;;
45944;SDS011;31655;48.972;10.686;2022-11-23T08:17:33;15.98;;;9.70;;
45944;SDS011;31655;48.972;10.686;2022-11-23T08:19:58;19.98;;;9.55;;
45944;SDS011;31655;48.972;10.686;2022-11-23T08:22:24;24.55;;;11.02;;
45944;SDS011;31655;48.972;10.686;2022-11-23T08:24:51;26.17;;;12.13;;
45944;SDS011;31655;48.972;10.686;2022-11-23T08:27:16;15.95;;;9.63;;
45944;SDS011;31655;48.972;10.686;2022-11-23T08:29:42;17.13;;;9.48;;
45944;SDS011;31655;48.972;10.686;2022-11-23T08:32:08;15.90;;;8.95;;
45944;SDS011;31655;48.972;10.686;2022-11-23T08:34:33;15.88;;;8.80;;
45944;SDS011;31655;48.972;10.686;2022-11-23T08:36:59;13.65;;;7.95;;
45944;SDS011;31655;48.972;10.686;2022-11-23T08:39:26;18.77;;;8.90;;
45944;SDS011;31655;48.972;10.686;2022-11-23T08:41:51;12.70;;;8.30;;
45944;SDS011;31655;48.972;10.686;2022-11-23T08:44:17;14.98;;;8.07;;
45944;SDS011;31655;48.972;10.686;2022-11-23T08:46:43;10.93;;;7.95;;
45944;SDS011;31655;48.972;10.686;2022-11-23T08:49:08;14.25;;;6.85;;
45944;SDS011;31655;48.972;10.686;2022-11-23T08:51:34;13.50;;;7.80;;
45944;SDS011;31655;48.972;10.686;2022-11-23T08:53:59;11.82;;;5.70;;
45944;SDS011;31655;48.972;10.686;2022-11-23T08:56:25;12.88;;;6.95;;
45944;SDS011;31655;48.972;10.686;2022-11-23T08:58:51;13.40;;;7.53;;
45944;SDS011;31655;48.972;10.686;2022-11-23T09:01:16;11.52;;;6.30;;
45944;SDS011;31655;48.972;10.686;2022-11-23T09:03:42;12.18;;;6.03;;
45944;SDS011;31655;48.972;10.686;2022-11-23T09:06:08;12.60;;;6.57;;
45944;SDS011;31655;48.972;10.686;2022-11-23T09:08:35;16.80;;;6.25;;
45944;SDS011;31655;48.972;10.686;2022-11-23T09:11:02;11.45;;;6.30;;
45944;SDS011;31655;48.972;10.686;2022-11-23T09:13:29;9.93;;;6.40;;
45944;SDS011;31655;48.972;10.686;2022-11-23T09:15:58;8.10;;;5.07;;
45944;SDS011;31655;48.972;10.686;2022-11-23T09:18:25;8.98;;;4.88;;
45944;SDS011;31655;48.972;10.686;2022-11-23T09:20:51;11.07;;;4.90;;
45944;SDS011;31655;48.972;10.686;2022-11-23T09:23:19;16.38;;;6.18;;
45944;SDS011;31655;48.972;10.686;2022-11-23T09:25:44;12.95;;;6.35;;
45944;SDS011;31655;48.972;10.686;2022-11-23T09:28:14;10.77;;;5.25;;
45944;SDS011;31655;48.972;10.686;2022-11-23T09:30:43;9.43;;;4.90;;
45944;SDS011;31655;48.972;10.686;2022-11-23T09:33:09;12.98;;;5.20;;
45944;SDS011;31655;48.972;10.686;2022-11-23T09:35:35;9.93;;;4.82;;
45944;SDS011;31655;48.972;10.686;2022-11-23T09:38:00;8.32;;;4.95;;
45944;SDS011;31655;48.972;10.686;2022-11-23T09:40:28;10.88;;;5.80;;
45944;SDS011;31655;48.972;10.686;2022-11-23T09:42:59;12.40;;;6.57;;
45944;SDS011;31655;48.972;10.686;2022-11-23T09:45:50;8.90;;;5.13;;
45944;SDS011;31655;48.972;10.686;2022-11-23T09:48:40;8.93;;;4.78;;
45944;SDS011;31655;48.972;10.686;2022-11-23T09:51:34;13.15;;;5.40;;
45944;SDS011;31655;48.972;10.686;2022-11-23T09:54:03;8.60;;;5.32;;
45944;SDS011;31655;48.972;10.686;2022-11-23T09:56:35;8.63;;;4.60;;
45944;SDS011;31655;48.972;10.686;2022-11-23T09:59:10;6.72;;;4.03;;
45944;SDS011;31655;48.972;10.686;2022-11-23T10:01:57;10.10;;;4.63;;
45944;SDS011;31655;48.972;10.686;2022-11-23T10:04:24;8.65;;;4.35;;
45944;SDS011;31655;48.972;10.686;2022-11-23T10:07:02;5.72;;;4.28;;
45944;SDS011;31655;48.972;10.686;2022-11-23T10:15:10;8.38;;;3.67;;
45944;SDS011;31655;48.972;10.686;2022-11-23T10:26:14;5.15;;;3.25;;
45944;SDS011;31655;48.972;10.686;2022-11-23T10:28:41;6.40;;;2.65;;
45944;SDS011;31655;48.972;10.686;2022-11-23T10:31:12;6.60;;;2.75;;
45944;SDS011;31655;48.972;10.686;2022-11-23T10:36:17;6.70;;;3.88;;
45944;SDS011;31655;48.972;10.686;2022-11-23T10:38:43;4.45;;;3.10;;
45944;SDS011;31655;48.972;10.686;2022-11-23T10:41:11;6.32;;;3.00;;
45944;SDS011;31655;48.972;10.686;2022-11-23T10:43:46;7.18;;;4.05;;
45944;SDS011;31655;48.972;10.686;2022-11-23T10:49:23;8.48;;;3.67;;
45944;SDS011;31655;48.972;10.686;2022-11-23T10:56:47;8.25;;;3.33;;
45944;SDS011;31655;48.972;10.686;2022-11-23T10:59:32;4.57;;;2.80;;
45944;SDS011;31655;48.972;10.686;2022-11-23T11:04:42;3.92;;;2.55;;
45944;SDS011;31655;48.972;10.686;2022-11-23T11:07:16;8.52;;;2.67;;
45944;SDS011;31655;48.972;10.686;2022-11-23T11:09:59;5.80;;;2.60;;
45944;SDS011;31655;48.972;10.686;2022-11-23T11:12:26;6.13;;;3.13;;
45944;SDS011;31655;48.972;10.686;2022-11-23T11:14:57;6.10;;;2.60;;
45944;SDS011;31655;48.972;10.686;2022-11-23T11:17:29;6.57;;;3.45;;
45944;SDS011;31655;48.972;10.686;2022-11-23T11:19:56;5.20;;;2.75;;
45944;SDS011;31655;48.972;10.686;2022-11-23T11:22:26;4.95;;;2.65;;
45944;SDS011;31655;48.972;10.686;2022-11-23T11:24:58;5.53;;;2.70;;
45944;SDS011;31655;48.972;10.686;2022-11-23T11:27:25;9.20;;;4.18;;
45944;SDS011;31655;48.972;10.686;2022-11-23T11:29:54;9.23;;;3.33;;
45944;SDS011;31655;48.972;10.686;2022-11-23T11:35:24;9.50;;;2.95;;
45944;SDS011;31655;48.972;10.686;2022-11-23T11:38:26;3.53;;;2.70;;
45944;SDS011;31655;48.972;10.686;2022-11-23T11:40:52;6.35;;;2.83;;
45944;SDS011;31655;48.972;10.686;2022-11-23T11:43:27;4.75;;;2.40;;
45944;SDS011;31655;48.972;10.686;2022-11-23T11:45:58;4.72;;;2.72;;
45944;SDS011;31655;48.972;10.686;2022-11-23T11:51:22;7.70;;;3.17;;
45944;SDS011;31655;48.972;10.686;2022-11-23T11:56:38;5.65;;;2.70;;
45944;SDS011;31655;48.972;10.686;2022-11-23T12:07:43;6.30;;;2.20;;
45944;SDS011;31655;48.972;10.686;2022-11-23T12:10:24;6.75;;;2.40;;
45944;SDS011;31655;48.972;10.686;2022-11-23T12:12:53;2.20;;;1.60;;
45944;SDS011;31655;48.972;10.686;2022-11-23T12:15:23;4.72;;;2.40;;
45944;SDS011;31655;48.972;10.686;2022-11-23T12:20:56;7.65;;;2.65;;
45944;SDS011;31655;48.972;10.686;2022-11-23T12:23:36;4.47;;;3.05;;
45944;SDS011;31655;48.972;10.686;2022-11-23T12:28:44;6.32;;;2.13;;
45944;SDS011;31655;48.972;10.686;2022-11-23T12:31:32;7.93;;;2.50;;
45944;SDS011;31655;48.972;10.686;2022-11-23T12:39:23;8.95;;;2.53;;
45944;SDS011;31655;48.972;10.686;2022-11-23T12:44:48;4.38;;;2.40;;
45944;SDS011;31655;48.972;10.686;2022-11-23T13:00:56;4.70;;;2.58;;
45944;SDS011;31655;48.972;10.686;2022-11-23T13:22:19;9.77;;;2.33;;
45944;SDS011;31655;48.972;10.686;2022-11-23T13:27:44;4.32;;;2.30;;
45944;SDS011;31655;48.972;10.686;2022-11-23T13:30:36;6.68;;;2.13;;
45944;SDS011;31655;48.972;10.686;2022-11-23T13:40:38;4.20;;;1.92;;
45944;SDS011;31655;48.972;10.686;2022-11-23T13:43:20;2.85;;;1.48;;
45944;SDS011;31655;48.972;10.686;2022-11-23T13:46:07;6.57;;;1.40;;
45944;SDS011;31655;48.972;10.686;2022-11-23T13:48:48;5.10;;;1.77;;
45944;SDS011;31655;48.972;10.686;2022-11-23T13:51:22;8.10;;;2.28;;
45944;SDS011;31655;48.972;10.686;2022-11-23T13:53:56;2.38;;;1.42;;
45944;SDS011;31655;48.972;10.686;2022-11-23T13:56:57;7.22;;;1.80;;
45944;SDS011;31655;48.972;10.686;2022-11-23T13:59:32;4.30;;;1.75;;
45944;SDS011;31655;48.972;10.686;2022-11-23T14:04:40;1.80;;;1.20;;
45944;SDS011;31655;48.972;10.686;2022-11-23T14:09:49;2.67;;;1.08;;
45944;SDS011;31655;48.972;10.686;2022-11-23T14:15:14;7.15;;;1.38;;
45944;SDS011;31655;48.972;10.686;2022-11-23T14:23:32;4.60;;;1.90;;
45944;SDS011;31655;48.972;10.686;2022-11-23T14:34:41;4.70;;;1.15;;
45944;SDS011;31655;48.972;10.686;2022-11-23T14:37:48;4.68;;;1.40;;
45944;SDS011;31655;48.972;10.686;2022-11-23T14:42:53;10.75;;;3.78;;
45944;SDS011;31655;48.972;10.686;2022-11-23T14:45:21;6.97;;;3.17;;
45944;SDS011;31655;48.972;10.686;2022-11-23T14:51:00;4.68;;;2.05;;
45944;SDS011;31655;48.972;10.686;2022-11-23T14:53:30;7.05;;;2.40;;
45944;SDS011;31655;48.972;10.686;2022-11-23T14:55:59;10.30;;;2.10;;
45944;SDS011;31655;48.972;10.686;2022-11-23T14:58:26;6.00;;;2.67;;
45944;SDS011;31655;48.972;10.686;2022-11-23T15:00:58;9.52;;;2.80;;
45944;SDS011;31655;48.972;10.686;2022-11-23T15:03:26;6.20;;;2.60;;
45944;SDS011;31655;48.972;10.686;2022-11-23T15:06:11;8.07;;;2.65;;
45944;SDS011;31655;48.972;10.686;2022-11-23T15:08:49;3.55;;;2.40;;
45944;SDS011;31655;48.972;10.686;2022-11-23T15:11:45;6.32;;;3.28;;
45944;SDS011;31655;48.972;10.686;2022-11-23T15:14:16;7.20;;;3.20;;
45944;SDS011;31655;48.972;10.686;2022-11-23T15:16:49;6.47;;;3.13;;
45944;SDS011;31655;48.972;10.686;2022-11-23T15:19:16;8.90;;;3.10;;
45944;SDS011;31655;48.972;10.686;2022-11-23T15:21:43;6.75;;;2.90;;
45944;SDS011;31655;48.972;10.686;2022-11-23T15:24:19;5.95;;;3.47;;
45944;SDS011;31655;48.972;10.686;2022-11-23T15:26:49;13.40;;;4.15;;
45944;SDS011;31655;48.972;10.686;2022-11-23T15:29:31;7.07;;;3.38;;
45944;SDS011;31655;48.972;10.686;2022-11-23T15:31:59;8.45;;;3.38;;
45944;SDS011;31655;48.972;10.686;2022-11-23T15:34:25;7.15;;;3.28;;
45944;SDS011;31655;48.972;10.686;2022-11-23T15:36:52;7.53;;;3.22;;
45944;SDS011;31655;48.972;10.686;2022-11-23T15:39:19;7.18;;;3.50;;
45944;SDS011;31655;48.972;10.686;2022-11-23T15:41:47;7.15;;;3.30;;
45944;SDS011;31655;48.972;10.686;2022-11-23T15:44:14;7.32;;;3.97;;
45944;SDS011;31655;48.972;10.686;2022-11-23T15:46:42;8.15;;;4.05;;
45944;SDS011;31655;48.972;10.686;2022-11-23T15:49:11;11.05;;;5.03;;
45944;SDS011;31655;48.972;10.686;2022-11-23T15:51:39;7.60;;;3.55;;
45944;SDS011;31655;48.972;10.686;2022-11-23T15:54:14;9.63;;;4.25;;
45944;SDS011;31655;48.972;10.686;2022-11-23T15:56:45;8.27;;;3.85;;
45944;SDS011;31655;48.972;10.686;2022-11-23T16:02:09;6.95;;;2.95;;
45944;SDS011;31655;48.972;10.686;2022-11-23T16:04:43;8.82;;;3.53;;
45944;SDS011;31655;48.972;10.686;2022-11-23T16:07:23;14.70;;;3.58;;
45944;SDS011;31655;48.972;10.686;2022-11-23T16:17:53;7.40;;;3.25;;
45944;SDS011;31655;48.972;10.686;2022-11-23T16:20:22;7.75;;;3.13;;
45944;SDS011;31655;48.972;10.686;2022-11-23T16:22:50;10.45;;;2.97;;
45944;SDS011;31655;48.972;10.686;2022-11-23T16:25:28;8.48;;;2.75;;
45944;SDS011;31655;48.972;10.686;2022-11-23T17:46:15;5.22;;;2.25;;
45944;SDS011;31655;48.972;10.686;2022-11-23T17:48:43;5.57;;;2.30;;
45944;SDS011;31655;48.972;10.686;2022-11-23T17:51:10;9.00;;;2.65;;
45944;SDS011;31655;48.972;10.686;2022-11-23T17:53:39;9.18;;;2.40;;
45944;SDS011;31655;48.972;10.686;2022-11-23T17:56:05;6.50;;;3.10;;
45944;SDS011;31655;48.972;10.686;2022-11-23T17:58:39;3.47;;;1.95;;
45944;SDS011;31655;48.972;10.686;2022-11-23T18:01:08;5.82;;;2.08;;
45944;SDS011;31655;48.972;10.686;2022-11-23T18:03:38;12.45;;;2.70;;
45944;SDS011;31655;48.972;10.686;2022-11-23T18:06:04;5.40;;;2.47;;
45944;SDS011;31655;48.972;10.686;2022-11-23T18:08:31;4.65;;;3.22;;
45944;SDS011;31655;48.972;10.686;2022-11-23T18:10:57;4.97;;;2.60;;
45944;SDS011;31655;48.972;10.686;2022-11-23T18:13:23;4.95;;;3.10;;
45944;SDS011;31655;48.972;10.686;2022-11-23T18:15:49;7.60;;;4.20;;
45944;SDS011;31655;48.972;10.686;2022-11-23T18:18:15;18.48;;;7.25;;
45944;SDS011;31655;48.972;10.686;2022-11-23T18:20:42;16.90;;;5.60;;
45944;SDS011;31655;48.972;10.686;2022-11-23T18:23:07;14.45;;;5.07;;
45944;SDS011;31655;48.972;10.686;2022-11-23T18:25:34;11.45;;;6.10;;
45944;SDS011;31655;48.972;10.686;2022-11-23T18:28:00;18.27;;;6.35;;
45944;SDS011;31655;48.972;10.686;2022-11-23T18:30:26;9.48;;;4.38;;
45944;SDS011;31655;48.972;10.686;2022-11-23T18:32:54;8.75;;;3.65;;
45944;SDS011;31655;48.972;10.686;2022-11-23T18:35:22;12.40;;;5.82;;
45944;SDS011;31655;48.972;10.686;2022-11-23T18:37:48;8.13;;;2.88;;
45944;SDS011;31655;48.972;10.686;2022-11-23T18:40:17;11.00;;;3.80;;
45944;SDS011;31655;48.972;10.686;2022-11-23T18:42:42;8.95;;;3.33;;
45944;SDS011;31655;48.972;10.686;2022-11-23T18:45:08;5.63;;;2.90;;
45944;SDS011;31655;48.972;10.686;2022-11-23T18:47:36;6.75;;;3.17;;
45944;SDS011;31655;48.972;10.686;2022-11-23T18:50:01;12.45;;;3.90;;
45944;SDS011;31655;48.972;10.686;2022-11-23T18:52:27;14.05;;;4.03;;
45944;SDS011;31655;48.972;10.686;2022-11-23T18:54:53;14.02;;;5.78;;
45944;SDS011;31655;48.972;10.686;2022-11-23T18:57:20;9.30;;;4.40;;
45944;SDS011;31655;48.972;10.686;2022-11-23T18:59:46;8.55;;;3.17;;
45944;SDS011;31655;48.972;10.686;2022-11-23T19:02:14;9.70;;;3.20;;
45944;SDS011;31655;48.972;10.686;2022-11-23T19:04:43;4.75;;;2.70;;
45944;SDS011;31655;48.972;10.686;2022-11-23T19:07:08;6.20;;;2.78;;
45944;SDS011;31655;48.972;10.686;2022-11-23T19:09:34;8.55;;;3.60;;
45944;SDS011;31655;48.972;10.686;2022-11-23T19:12:03;9.23;;;3.42;;
45944;SDS011;31655;48.972;10.686;2022-11-23T19:14:33;8.73;;;2.92;;
45944;SDS011;31655;48.972;10.686;2022-11-23T19:17:02;6.25;;;2.53;;
45944;SDS011;31655;48.972;10.686;2022-11-23T19:19:28;6.45;;;2.42;;
45944;SDS011;31655;48.972;10.686;2022-11-23T19:21:57;8.07;;;2.30;;
45944;SDS011;31655;48.972;10.686;2022-11-23T19:24:25;6.97;;;2.30;;
45944;SDS011;31655;48.972;10.686;2022-11-23T19:26:56;5.88;;;2.50;;
45944;SDS011;31655;48.972;10.686;2022-11-23T19:29:21;4.45;;;2.50;;
45944;SDS011;31655;48.972;10.686;2022-11-23T19:31:49;4.07;;;2.42;;
45944;SDS011;31655;48.972;10.686;2022-11-23T19:34:24;5.38;;;2.40;;
45944;SDS011;31655;48.972;10.686;2022-11-23T19:36:53;5.70;;;2.53;;
45944;SDS011;31655;48.972;10.686;2022-11-23T19:39:21;5.22;;;2.60;;
45944;SDS011;31655;48.972;10.686;2022-11-23T19:41:49;6.00;;;2.78;;
45944;SDS011;31655;48.972;10.686;2022-11-23T19:44:15;5.60;;;2.85;;
45944;SDS011;31655;48.972;10.686;2022-11-23T19:46:45;5.43;;;3.38;;
45944;SDS011;31655;48.972;10.686;2022-11-23T19:49:11;5.32;;;3.25;;
45944;SDS011;31655;48.972;10.686;2022-11-23T19:51:37;6.93;;;3.30;;
45944;SDS011;31655;48.972;10.686;2022-11-23T19:54:03;10.90;;;4.28;;
45944;SDS011;31655;48.972;10.686;2022-11-23T19:56:30;11.65;;;3.92;;
45944;SDS011;31655;48.972;10.686;2022-11-23T19:58:57;6.93;;;3.47;;
45944;SDS011;31655;48.972;10.686;2022-11-23T20:01:24;8.13;;;4.03;;
45944;SDS011;31655;48.972;10.686;2022-11-23T20:03:52;7.88;;;3.70;;
45944;SDS011;31655;48.972;10.686;2022-11-23T20:08:56;8.48;;;3.78;;
45944;SDS011;31655;48.972;10.686;2022-11-23T20:11:24;5.80;;;3.05;;
45944;SDS011;31655;48.972;10.686;2022-11-23T20:13:52;6.82;;;3.25;;
45944;SDS011;31655;48.972;10.686;2022-11-23T20:16:18;3.85;;;2.78;;
45944;SDS011;31655;48.972;10.686;2022-11-23T20:18:45;6.40;;;3.28;;
45944;SDS011;31655;48.972;10.686;2022-11-23T20:21:15;5.18;;;2.72;;
45944;SDS011;31655;48.972;10.686;2022-11-23T20:23:42;5.68;;;2.42;;
45944;SDS011;31655;48.972;10.686;2022-11-23T20:26:10;6.38;;;1.95;;
45944;SDS011;31655;48.972;10.686;2022-11-23T20:28:43;3.97;;;2.20;;
45944;SDS011;31655;48.972;10.686;2022-11-23T20:31:16;4.47;;;2.22;;
45944;SDS011;31655;48.972;10.686;2022-11-23T20:33:43;2.90;;;1.83;;
45944;SDS011;31655;48.972;10.686;2022-11-23T20:36:13;2.95;;;2.05;;
45944;SDS011;31655;48.972;10.686;2022-11-23T20:38:44;3.15;;;1.98;;
45944;SDS011;31655;48.972;10.686;2022-11-23T20:41:11;2.83;;;1.95;;
45944;SDS011;31655;48.972;10.686;2022-11-23T20:43:50;4.97;;;2.70;;
45944;SDS011;31655;48.972;10.686;2022-11-23T20:46:17;4.25;;;2.42;;
45944;SDS011;31655;48.972;10.686;2022-11-23T20:48:43;5.03;;;2.80;;
45944;SDS011;31655;48.972;10.686;2022-11-23T20:51:13;3.92;;;2.92;;
45944;SDS011;31655;48.972;10.686;2022-11-23T20:53:39;5.57;;;3.20;;
45944;SDS011;31655;48.972;10.686;2022-11-23T20:56:09;6.70;;;4.18;;
45944;SDS011;31655;48.972;10.686;2022-11-23T20:58:36;7.45;;;3.53;;
45944;SDS011;31655;48.972;10.686;2022-11-23T21:01:15;8.00;;;3.88;;
45944;SDS011;31655;48.972;10.686;2022-11-23T21:03:52;5.03;;;3.63;;
45944;SDS011;31655;48.972;10.686;2022-11-23T21:06:28;9.40;;;3.38;;
45944;SDS011;31655;48.972;10.686;2022-11-23T21:09:03;9.18;;;4.35;;
45944;SDS011;31655;48.972;10.686;2022-11-23T21:11:31;5.57;;;3.47;;
45944;SDS011;31655;48.972;10.686;2022-11-23T21:14:21;11.85;;;5.68;;
45944;SDS011;31655;48.972;10.686;2022-11-23T21:16:50;6.82;;;4.57;;
45944;SDS011;31655;48.972;10.686;2022-11-23T21:19:20;7.55;;;4.40;;
45944;SDS011;31655;48.972;10.686;2022-11-23T21:21:49;8.43;;;4.45;;
45944;SDS011;31655;48.972;10.686;2022-11-23T21:24:16;7.40;;;4.97;;
45944;SDS011;31655;48.972;10.686;2022-11-23T21:26:42;6.75;;;4.57;;
45944;SDS011;31655;48.972;10.686;2022-11-23T21:29:08;8.15;;;4.75;;
45944;SDS011;31655;48.972;10.686;2022-11-23T21:31:42;10.13;;;6.00;;
45944;SDS011;31655;48.972;10.686;2022-11-23T21:34:11;6.63;;;5.18;;
45944;SDS011;31655;48.972;10.686;2022-11-23T21:36:58;8.95;;;5.70;;
45944;SDS011;31655;48.972;10.686;2022-11-23T21:39:26;7.78;;;5.82;;
45944;SDS011;31655;48.972;10.686;2022-11-23T21:42:00;8.10;;;5.50;;
45944;SDS011;31655;48.972;10.686;2022-11-23T21:44:26;10.60;;;5.97;;
45944;SDS011;31655;48.972;10.686;2022-11-23T21:46:53;8.48;;;5.72;;
45944;SDS011;31655;48.972;10.686;2022-11-23T21:49:22;11.48;;;6.03;;
45944;SDS011;31655;48.972;10.686;2022-11-23T21:51:49;11.00;;;5.50;;
45944;SDS011;31655;48.972;10.686;2022-11-23T21:54:15;10.32;;;7.10;;
45944;SDS011;31655;48.972;10.686;2022-11-23T21:56:44;11.18;;;7.05;;
45944;SDS011;31655;48.972;10.686;2022-11-23T21:59:11;10.13;;;7.10;;
45944;SDS011;31655;48.972;10.686;2022-11-23T22:01:38;12.05;;;7.80;;
45944;SDS011;31655;48.972;10.686;2022-11-23T22:04:08;12.98;;;7.55;;
45944;SDS011;31655;48.972;10.686;2022-11-23T22:06:35;14.68;;;8.90;;
45944;SDS011;31655;48.972;10.686;2022-11-23T22:09:05;15.88;;;9.40;;
45944;SDS011;31655;48.972;10.686;2022-11-23T22:11:33;19.40;;;9.93;;
45944;SDS011;31655;48.972;10.686;2022-11-23T22:14:03;14.60;;;9.40;;
45944;SDS011;31655;48.972;10.686;2022-11-23T22:16:35;18.35;;;10.27;;
45944;SDS011;31655;48.972;10.686;2022-11-23T22:19:05;19.80;;;10.40;;
45944;SDS011;31655;48.972;10.686;2022-11-23T22:21:35;16.75;;;10.10;;
45944;SDS011;31655;48.972;10.686;2022-11-23T22:24:03;17.98;;;11.25;;
45944;SDS011;31655;48.972;10.686;2022-11-23T22:26:32;23.83;;;11.43;;
45944;SDS011;31655;48.972;10.686;2022-11-23T22:28:58;22.25;;;11.60;;
45944;SDS011;31655;48.972;10.686;2022-11-23T22:31:27;20.77;;;12.25;;
45944;SDS011;31655;48.972;10.686;2022-11-23T22:33:57;17.15;;;11.05;;
45944;SDS011;31655;48.972;10.686;2022-11-23T22:36:24;23.77;;;12.30;;
45944;SDS011;31655;48.972;10.686;2022-11-23T22:38:54;23.23;;;11.50;;
45944;SDS011;31655;48.972;10.686;2022-11-23T22:41:21;21.88;;;12.52;;
45944;SDS011;31655;48.972;10.686;2022-11-23T22:43:47;20.98;;;12.80;;
45944;SDS011;31655;48.972;10.686;2022-11-23T22:46:14;21.48;;;12.80;;
45944;SDS011;31655;48.972;10.686;2022-11-23T22:48:43;22.15;;;13.73;;
45944;SDS011;31655;48.972;10.686;2022-11-23T22:51:14;21.05;;;13.05;;
45944;SDS011;31655;48.972;10.686;2022-11-23T22:53:53;22.77;;;13.10;;
45944;SDS011;31655;48.972;10.686;2022-11-23T22:56:21;21.85;;;14.13;;
45944;SDS011;31655;48.972;10.686;2022-11-23T22:58:50;19.42;;;12.07;;
45944;SDS011;31655;48.972;10.686;2022-11-23T23:01:21;24.90;;;13.43;;
45944;SDS011;31655;48.972;10.686;2022-11-23T23:03:52;22.67;;;12.30;;
45944;SDS011;31655;48.972;10.686;2022-11-23T23:06:22;23.98;;;11.60;;
45944;SDS011;31655;48.972;10.686;2022-11-23T23:08:51;19.23;;;11.18;;
45944;SDS011;31655;48.972;10.686;2022-11-23T23:11:20;18.23;;;10.73;;
45944;SDS011;31655;48.972;10.686;2022-11-23T23:13:47;16.98;;;9.57;;
45944;SDS011;31655;48.972;10.686;2022-11-23T23:16:13;22.35;;;8.82;;
45944;SDS011;31655;48.972;10.686;2022-11-23T23:18:40;21.33;;;9.15;;
45944;SDS011;31655;48.972;10.686;2022-11-23T23:21:10;19.70;;;7.57;;
45944;SDS011;31655;48.972;10.686;2022-11-23T23:23:39;10.48;;;7.20;;
45944;SDS011;31655;48.972;10.686;2022-11-23T23:26:10;24.25;;;7.55;;
45944;SDS011;31655;48.972;10.686;2022-11-23T23:28:38;20.70;;;6.82;;
45944;SDS011;31655;48.972;10.686;2022-11-23T23:31:07;11.75;;;5.95;;
45944;SDS011;31655;48.972;10.686;2022-11-23T23:33:34;10.13;;;4.82;;
45944;SDS011;31655;48.972;10.686;2022-11-23T23:38:31;11.95;;;4.47;;
45944;SDS011;31655;48.972;10.686;2022-11-23T23:40:57;8.52;;;4.00;;
45944;SDS011;31655;48.972;10.686;2022-11-23T23:43:23;17.08;;;4.22;;
45944;SDS011;31655;48.972;10.686;2022-11-23T23:45:49;16.40;;;3.97;;
45944;SDS011;31655;48.972;10.686;2022-11-23T23:48:16;9.85;;;4.10;;
45944;SDS011;31655;48.972;10.686;2022-11-23T23:50:41;23.73;;;4.47;;
45944;SDS011;31655;48.972;10.686;2022-11-23T23:53:07;18.83;;;4.45;;
45944;SDS011;31655;48.972;10.686;2022-11-23T23:55:34;14.23;;;5.13;;
45944;SDS011;31655;48.972;10.686;2022-11-23T23:58:00;17.05;;;3.65;;
